sensor_id;sensor_type;location;lat;lon;timestamp;temperature;humidity
45491;DHT22;31237;45.586;13.782;2022-11-20T00:00:54;7.20;83.90
45491;DHT22;31237;45.586;13.782;2022-11-20T00:03:21;7.20;84.10
45491;DHT22;31237;45.586;13.782;2022-11-20T00:05:46;7.20;84.10
45491;DHT22;31237;45.586;13.782;2022-11-20T00:08:12;7.20;84.00
45491;DHT22;31237;45.586;13.782;2022-11-20T00:10:39;7.20;83.80
45491;DHT22;31237;45.586;13.782;2022-11-20T00:13:06;7.10;84.00
45491;DHT22;31237;45.586;13.782;2022-11-20T00:15:32;7.10;83.80
45491;DHT22;31237;45.586;13.782;2022-11-20T00:17:58;7.10;84.00
45491;DHT22;31237;45.586;13.782;2022-11-20T00:20:24;7.10;84.30
45491;DHT22;31237;45.586;13.782;2022-11-20T00:22:50;7.00;84.30
45491;DHT22;31237;45.586;13.782;2022-11-20T00:25:16;7.10;84.70
45491;DHT22;31237;45.586;13.782;2022-11-20T00:27:41;7.10;84.90
45491;DHT22;31237;45.586;13.782;2022-11-20T00:30:08;7.00;85.10
45491;DHT22;31237;45.586;13.782;2022-11-20T00:32:34;7.00;85.30
45491;DHT22;31237;45.586;13.782;2022-11-20T00:35:00;7.00;85.30
45491;DHT22;31237;45.586;13.782;2022-11-20T00:37:26;6.90;85.60
45491;DHT22;31237;45.586;13.782;2022-11-20T00:39:52;6.90;86.00
45491;DHT22;31237;45.586;13.782;2022-11-20T00:42:18;6.90;86.10
45491;DHT22;31237;45.586;13.782;2022-11-20T00:44:43;6.90;86.30
45491;DHT22;31237;45.586;13.782;2022-11-20T00:47:09;6.80;86.50
45491;DHT22;31237;45.586;13.782;2022-11-20T00:49:35;6.80;86.70
45491;DHT22;31237;45.586;13.782;2022-11-20T00:52:01;6.80;86.90
45491;DHT22;31237;45.586;13.782;2022-11-20T00:54:26;6.80;87.20
45491;DHT22;31237;45.586;13.782;2022-11-20T00:56:55;6.70;87.10
45491;DHT22;31237;45.586;13.782;2022-11-20T00:59:21;6.80;87.30
45491;DHT22;31237;45.586;13.782;2022-11-20T01:01:46;6.70;87.70
45491;DHT22;31237;45.586;13.782;2022-11-20T01:04:12;6.70;87.90
45491;DHT22;31237;45.586;13.782;2022-11-20T01:06:38;6.70;88.10
45491;DHT22;31237;45.586;13.782;2022-11-20T01:09:12;6.70;88.20
45491;DHT22;31237;45.586;13.782;2022-11-20T01:11:40;6.60;88.30
45491;DHT22;31237;45.586;13.782;2022-11-20T01:14:12;6.60;88.50
45491;DHT22;31237;45.586;13.782;2022-11-20T01:16:41;6.60;88.60
45491;DHT22;31237;45.586;13.782;2022-11-20T01:19:13;6.60;89.00
45491;DHT22;31237;45.586;13.782;2022-11-20T01:21:42;6.60;89.30
45491;DHT22;31237;45.586;13.782;2022-11-20T01:24:10;6.50;89.60
45491;DHT22;31237;45.586;13.782;2022-11-20T01:26:39;6.50;89.90
45491;DHT22;31237;45.586;13.782;2022-11-20T01:29:06;6.50;89.90
45491;DHT22;31237;45.586;13.782;2022-11-20T01:31:34;6.50;90.10
45491;DHT22;31237;45.586;13.782;2022-11-20T01:34:03;6.50;90.20
45491;DHT22;31237;45.586;13.782;2022-11-20T01:36:31;6.40;90.20
45491;DHT22;31237;45.586;13.782;2022-11-20T01:38:59;6.40;90.40
45491;DHT22;31237;45.586;13.782;2022-11-20T01:41:27;6.40;90.50
45491;DHT22;31237;45.586;13.782;2022-11-20T01:44:15;6.40;90.60
45491;DHT22;31237;45.586;13.782;2022-11-20T01:47:05;6.40;90.70
45491;DHT22;31237;45.586;13.782;2022-11-20T01:52:05;6.40;90.60
45491;DHT22;31237;45.586;13.782;2022-11-20T01:54:47;6.40;90.60
45491;DHT22;31237;45.586;13.782;2022-11-20T01:57:15;6.40;90.70
45491;DHT22;31237;45.586;13.782;2022-11-20T01:59:46;6.40;90.80
45491;DHT22;31237;45.586;13.782;2022-11-20T02:02:13;6.40;90.90
45491;DHT22;31237;45.586;13.782;2022-11-20T02:04:39;6.40;90.90
45491;DHT22;31237;45.586;13.782;2022-11-20T02:07:05;6.40;91.00
45491;DHT22;31237;45.586;13.782;2022-11-20T02:09:31;6.30;91.10
45491;DHT22;31237;45.586;13.782;2022-11-20T02:11:58;6.40;91.10
45491;DHT22;31237;45.586;13.782;2022-11-20T02:14:24;6.40;91.20
45491;DHT22;31237;45.586;13.782;2022-11-20T02:16:51;6.40;91.10
45491;DHT22;31237;45.586;13.782;2022-11-20T02:19:23;6.40;91.10
45491;DHT22;31237;45.586;13.782;2022-11-20T02:24:28;6.40;91.10
45491;DHT22;31237;45.586;13.782;2022-11-20T02:27:09;6.40;91.10
45491;DHT22;31237;45.586;13.782;2022-11-20T02:34:47;6.40;91.00
45491;DHT22;31237;45.586;13.782;2022-11-20T02:37:14;6.40;90.90
45491;DHT22;31237;45.586;13.782;2022-11-20T02:39:40;6.40;91.00
45491;DHT22;31237;45.586;13.782;2022-11-20T02:42:06;6.40;90.90
45491;DHT22;31237;45.586;13.782;2022-11-20T02:44:31;6.40;90.90
45491;DHT22;31237;45.586;13.782;2022-11-20T02:46:58;6.40;90.90
45491;DHT22;31237;45.586;13.782;2022-11-20T02:49:24;6.40;90.90
45491;DHT22;31237;45.586;13.782;2022-11-20T02:51:50;6.50;90.90
45491;DHT22;31237;45.586;13.782;2022-11-20T02:54:16;6.50;90.90
45491;DHT22;31237;45.586;13.782;2022-11-20T02:56:42;6.50;90.90
45491;DHT22;31237;45.586;13.782;2022-11-20T02:59:07;6.50;90.80
45491;DHT22;31237;45.586;13.782;2022-11-20T03:01:33;6.50;90.60
45491;DHT22;31237;45.586;13.782;2022-11-20T03:03:59;6.50;90.60
45491;DHT22;31237;45.586;13.782;2022-11-20T03:06:24;6.50;90.60
45491;DHT22;31237;45.586;13.782;2022-11-20T03:08:50;6.50;90.60
45491;DHT22;31237;45.586;13.782;2022-11-20T03:11:17;6.60;90.60
45491;DHT22;31237;45.586;13.782;2022-11-20T03:13:43;6.60;90.60
45491;DHT22;31237;45.586;13.782;2022-11-20T03:16:17;6.60;90.60
45491;DHT22;31237;45.586;13.782;2022-11-20T03:18:43;6.60;90.60
45491;DHT22;31237;45.586;13.782;2022-11-20T03:21:10;6.50;90.50
45491;DHT22;31237;45.586;13.782;2022-11-20T03:23:37;6.60;90.50
45491;DHT22;31237;45.586;13.782;2022-11-20T03:26:10;6.60;90.50
45491;DHT22;31237;45.586;13.782;2022-11-20T03:28:36;6.60;90.50
45491;DHT22;31237;45.586;13.782;2022-11-20T03:31:10;6.60;90.50
45491;DHT22;31237;45.586;13.782;2022-11-20T03:33:37;6.50;90.40
45491;DHT22;31237;45.586;13.782;2022-11-20T03:36:05;6.50;90.40
45491;DHT22;31237;45.586;13.782;2022-11-20T03:38:32;6.50;90.40
45491;DHT22;31237;45.586;13.782;2022-11-20T03:40:59;6.50;90.40
45491;DHT22;31237;45.586;13.782;2022-11-20T03:43:26;6.50;90.40
45491;DHT22;31237;45.586;13.782;2022-11-20T03:45:52;6.40;90.30
45491;DHT22;31237;45.586;13.782;2022-11-20T03:48:17;6.40;90.40
45491;DHT22;31237;45.586;13.782;2022-11-20T03:50:43;6.40;90.40
45491;DHT22;31237;45.586;13.782;2022-11-20T03:53:09;6.40;90.40
45491;DHT22;31237;45.586;13.782;2022-11-20T03:55:34;6.30;90.40
45491;DHT22;31237;45.586;13.782;2022-11-20T03:58:00;6.30;90.40
45491;DHT22;31237;45.586;13.782;2022-11-20T04:00:26;6.30;90.40
45491;DHT22;31237;45.586;13.782;2022-11-20T04:02:51;6.30;90.30
45491;DHT22;31237;45.586;13.782;2022-11-20T04:05:17;6.30;90.40
45491;DHT22;31237;45.586;13.782;2022-11-20T04:07:43;6.30;90.30
45491;DHT22;31237;45.586;13.782;2022-11-20T04:10:08;6.30;90.30
45491;DHT22;31237;45.586;13.782;2022-11-20T04:12:34;6.30;90.30
45491;DHT22;31237;45.586;13.782;2022-11-20T04:15:00;6.30;90.30
45491;DHT22;31237;45.586;13.782;2022-11-20T04:17:26;6.30;90.30
45491;DHT22;31237;45.586;13.782;2022-11-20T04:19:51;6.30;90.30
45491;DHT22;31237;45.586;13.782;2022-11-20T04:22:17;6.40;90.20
45491;DHT22;31237;45.586;13.782;2022-11-20T04:24:42;6.40;90.20
45491;DHT22;31237;45.586;13.782;2022-11-20T04:27:08;6.40;90.10
45491;DHT22;31237;45.586;13.782;2022-11-20T04:29:34;6.40;90.10
45491;DHT22;31237;45.586;13.782;2022-11-20T04:31:59;6.30;90.00
45491;DHT22;31237;45.586;13.782;2022-11-20T04:34:25;6.40;90.00
45491;DHT22;31237;45.586;13.782;2022-11-20T04:36:51;6.40;90.00
45491;DHT22;31237;45.586;13.782;2022-11-20T04:39:16;6.40;90.00
45491;DHT22;31237;45.586;13.782;2022-11-20T04:41:42;6.40;90.00
45491;DHT22;31237;45.586;13.782;2022-11-20T04:44:08;6.40;90.00
45491;DHT22;31237;45.586;13.782;2022-11-20T04:46:37;6.40;90.10
45491;DHT22;31237;45.586;13.782;2022-11-20T04:49:03;6.40;90.10
45491;DHT22;31237;45.586;13.782;2022-11-20T04:51:29;6.40;90.10
45491;DHT22;31237;45.586;13.782;2022-11-20T04:53:55;6.50;90.20
45491;DHT22;31237;45.586;13.782;2022-11-20T04:56:21;6.40;90.20
45491;DHT22;31237;45.586;13.782;2022-11-20T04:58:46;6.50;90.10
45491;DHT22;31237;45.586;13.782;2022-11-20T05:01:18;6.50;90.10
45491;DHT22;31237;45.586;13.782;2022-11-20T05:03:44;6.50;89.90
45491;DHT22;31237;45.586;13.782;2022-11-20T05:06:12;6.50;89.70
45491;DHT22;31237;45.586;13.782;2022-11-20T05:08:38;6.60;89.30
45491;DHT22;31237;45.586;13.782;2022-11-20T05:11:10;6.60;89.20
45491;DHT22;31237;45.586;13.782;2022-11-20T05:13:36;6.60;89.10
45491;DHT22;31237;45.586;13.782;2022-11-20T05:16:11;6.60;89.10
45491;DHT22;31237;45.586;13.782;2022-11-20T05:18:37;6.60;89.10
45491;DHT22;31237;45.586;13.782;2022-11-20T05:21:04;6.60;89.10
45491;DHT22;31237;45.586;13.782;2022-11-20T05:23:31;6.60;89.10
45491;DHT22;31237;45.586;13.782;2022-11-20T05:25:58;6.60;89.10
45491;DHT22;31237;45.586;13.782;2022-11-20T05:28:25;6.60;89.10
45491;DHT22;31237;45.586;13.782;2022-11-20T05:30:55;6.60;89.20
45491;DHT22;31237;45.586;13.782;2022-11-20T05:33:22;6.70;89.30
45491;DHT22;31237;45.586;13.782;2022-11-20T05:35:48;6.70;89.20
45491;DHT22;31237;45.586;13.782;2022-11-20T05:38:14;6.70;89.30
45491;DHT22;31237;45.586;13.782;2022-11-20T05:40:40;6.70;89.10
45491;DHT22;31237;45.586;13.782;2022-11-20T05:43:05;6.70;89.00
45491;DHT22;31237;45.586;13.782;2022-11-20T05:45:31;6.70;89.00
45491;DHT22;31237;45.586;13.782;2022-11-20T05:48:00;6.70;89.00
45491;DHT22;31237;45.586;13.782;2022-11-20T05:50:27;6.70;88.90
45491;DHT22;31237;45.586;13.782;2022-11-20T05:52:52;6.70;88.80
45491;DHT22;31237;45.586;13.782;2022-11-20T05:55:18;6.70;88.80
45491;DHT22;31237;45.586;13.782;2022-11-20T05:57:44;6.70;89.00
45491;DHT22;31237;45.586;13.782;2022-11-20T06:00:10;6.70;89.00
45491;DHT22;31237;45.586;13.782;2022-11-20T06:02:36;6.80;89.10
45491;DHT22;31237;45.586;13.782;2022-11-20T06:05:02;6.70;88.60
45491;DHT22;31237;45.586;13.782;2022-11-20T06:07:27;6.80;88.80
45491;DHT22;31237;45.586;13.782;2022-11-20T06:09:53;6.80;88.70
45491;DHT22;31237;45.586;13.782;2022-11-20T06:12:19;6.70;88.70
45491;DHT22;31237;45.586;13.782;2022-11-20T06:14:44;6.70;88.80
45491;DHT22;31237;45.586;13.782;2022-11-20T06:17:10;6.70;88.70
45491;DHT22;31237;45.586;13.782;2022-11-20T06:19:36;6.70;88.70
45491;DHT22;31237;45.586;13.782;2022-11-20T06:22:01;6.70;88.70
45491;DHT22;31237;45.586;13.782;2022-11-20T06:24:27;6.70;88.80
45491;DHT22;31237;45.586;13.782;2022-11-20T06:26:53;6.70;88.90
45491;DHT22;31237;45.586;13.782;2022-11-20T06:29:18;6.70;89.10
45491;DHT22;31237;45.586;13.782;2022-11-20T06:31:44;6.70;89.20
45491;DHT22;31237;45.586;13.782;2022-11-20T06:34:11;6.70;89.30
45491;DHT22;31237;45.586;13.782;2022-11-20T06:36:37;6.70;89.40
45491;DHT22;31237;45.586;13.782;2022-11-20T06:39:03;6.70;89.50
45491;DHT22;31237;45.586;13.782;2022-11-20T06:41:29;6.70;89.60
45491;DHT22;31237;45.586;13.782;2022-11-20T06:43:55;6.70;89.80
45491;DHT22;31237;45.586;13.782;2022-11-20T06:46:20;6.70;89.80
45491;DHT22;31237;45.586;13.782;2022-11-20T06:48:47;6.70;89.60
45491;DHT22;31237;45.586;13.782;2022-11-20T06:51:13;6.70;89.50
45491;DHT22;31237;45.586;13.782;2022-11-20T06:53:39;6.80;89.30
45491;DHT22;31237;45.586;13.782;2022-11-20T06:56:06;6.80;89.30
45491;DHT22;31237;45.586;13.782;2022-11-20T06:58:33;6.80;89.20
45491;DHT22;31237;45.586;13.782;2022-11-20T07:01:04;6.80;89.20
45491;DHT22;31237;45.586;13.782;2022-11-20T07:03:31;6.80;89.10
45491;DHT22;31237;45.586;13.782;2022-11-20T07:05:57;6.80;89.00
45491;DHT22;31237;45.586;13.782;2022-11-20T07:08:24;6.90;88.80
45491;DHT22;31237;45.586;13.782;2022-11-20T07:10:50;6.90;88.60
45491;DHT22;31237;45.586;13.782;2022-11-20T07:13:15;6.90;88.40
45491;DHT22;31237;45.586;13.782;2022-11-20T07:15:41;6.90;88.40
45491;DHT22;31237;45.586;13.782;2022-11-20T07:18:07;6.90;88.40
45491;DHT22;31237;45.586;13.782;2022-11-20T07:20:33;6.90;88.50
45491;DHT22;31237;45.586;13.782;2022-11-20T07:22:58;6.90;88.50
45491;DHT22;31237;45.586;13.782;2022-11-20T07:25:28;7.00;88.40
45491;DHT22;31237;45.586;13.782;2022-11-20T07:27:57;7.00;88.30
45491;DHT22;31237;45.586;13.782;2022-11-20T07:30:23;7.00;88.30
45491;DHT22;31237;45.586;13.782;2022-11-20T07:32:52;7.00;88.00
45491;DHT22;31237;45.586;13.782;2022-11-20T07:35:19;7.00;87.50
45491;DHT22;31237;45.586;13.782;2022-11-20T07:37:45;7.10;87.60
45491;DHT22;31237;45.586;13.782;2022-11-20T07:40:12;7.10;87.60
45491;DHT22;31237;45.586;13.782;2022-11-20T07:42:38;7.10;87.50
45491;DHT22;31237;45.586;13.782;2022-11-20T07:45:04;7.10;87.70
45491;DHT22;31237;45.586;13.782;2022-11-20T07:47:35;7.10;87.70
45491;DHT22;31237;45.586;13.782;2022-11-20T07:50:01;7.10;87.90
45491;DHT22;31237;45.586;13.782;2022-11-20T07:52:28;7.10;87.90
45491;DHT22;31237;45.586;13.782;2022-11-20T07:54:54;7.10;88.10
45491;DHT22;31237;45.586;13.782;2022-11-20T07:57:19;7.10;88.10
45491;DHT22;31237;45.586;13.782;2022-11-20T07:59:45;7.20;88.30
45491;DHT22;31237;45.586;13.782;2022-11-20T08:02:11;7.20;88.40
45491;DHT22;31237;45.586;13.782;2022-11-20T08:04:37;7.20;88.40
45491;DHT22;31237;45.586;13.782;2022-11-20T08:07:02;7.20;88.30
45491;DHT22;31237;45.586;13.782;2022-11-20T08:09:28;7.30;88.30
45491;DHT22;31237;45.586;13.782;2022-11-20T08:11:54;7.30;88.10
45491;DHT22;31237;45.586;13.782;2022-11-20T08:14:38;7.30;88.10
45491;DHT22;31237;45.586;13.782;2022-11-20T08:17:04;7.30;88.00
45491;DHT22;31237;45.586;13.782;2022-11-20T08:19:30;7.30;86.80
45491;DHT22;31237;45.586;13.782;2022-11-20T08:21:55;7.40;86.50
45491;DHT22;31237;45.586;13.782;2022-11-20T08:24:21;7.40;85.90
45491;DHT22;31237;45.586;13.782;2022-11-20T08:26:47;7.40;85.90
45491;DHT22;31237;45.586;13.782;2022-11-20T08:29:12;7.50;85.50
45491;DHT22;31237;45.586;13.782;2022-11-20T08:31:38;7.50;85.50
45491;DHT22;31237;45.586;13.782;2022-11-20T08:34:04;7.50;85.30
45491;DHT22;31237;45.586;13.782;2022-11-20T08:36:33;7.60;85.40
45491;DHT22;31237;45.586;13.782;2022-11-20T08:38:59;7.60;85.70
45491;DHT22;31237;45.586;13.782;2022-11-20T08:41:24;7.60;85.90
45491;DHT22;31237;45.586;13.782;2022-11-20T08:46:19;7.60;85.90
45491;DHT22;31237;45.586;13.782;2022-11-20T08:48:45;7.70;85.90
45491;DHT22;31237;45.586;13.782;2022-11-20T08:51:11;7.70;86.00
45491;DHT22;31237;45.586;13.782;2022-11-20T08:53:38;7.70;86.10
45491;DHT22;31237;45.586;13.782;2022-11-20T08:56:04;7.70;85.90
45491;DHT22;31237;45.586;13.782;2022-11-20T08:58:30;7.70;85.70
45491;DHT22;31237;45.586;13.782;2022-11-20T09:00:56;7.80;85.70
45491;DHT22;31237;45.586;13.782;2022-11-20T09:03:21;7.80;85.30
45491;DHT22;31237;45.586;13.782;2022-11-20T09:05:47;7.80;84.80
45491;DHT22;31237;45.586;13.782;2022-11-20T09:08:13;7.80;84.90
45491;DHT22;31237;45.586;13.782;2022-11-20T09:10:39;7.80;84.80
45491;DHT22;31237;45.586;13.782;2022-11-20T09:13:07;7.80;84.90
45491;DHT22;31237;45.586;13.782;2022-11-20T09:15:33;7.90;84.80
45491;DHT22;31237;45.586;13.782;2022-11-20T09:18:01;7.90;85.10
45491;DHT22;31237;45.586;13.782;2022-11-20T09:20:29;7.90;85.00
45491;DHT22;31237;45.586;13.782;2022-11-20T09:22:56;8.00;85.10
45491;DHT22;31237;45.586;13.782;2022-11-20T09:25:21;8.00;85.20
45491;DHT22;31237;45.586;13.782;2022-11-20T09:27:47;8.00;85.20
45491;DHT22;31237;45.586;13.782;2022-11-20T09:30:14;8.10;85.30
45491;DHT22;31237;45.586;13.782;2022-11-20T09:32:40;8.10;85.20
45491;DHT22;31237;45.586;13.782;2022-11-20T09:35:07;8.10;85.40
45491;DHT22;31237;45.586;13.782;2022-11-20T09:37:33;8.10;85.10
45491;DHT22;31237;45.586;13.782;2022-11-20T09:39:59;8.10;85.00
45491;DHT22;31237;45.586;13.782;2022-11-20T09:46:22;8.20;84.80
45491;DHT22;31237;45.586;13.782;2022-11-20T09:48:59;8.30;84.40
45491;DHT22;31237;45.586;13.782;2022-11-20T09:52:04;8.30;83.80
45491;DHT22;31237;45.586;13.782;2022-11-20T09:54:38;8.40;84.20
45491;DHT22;31237;45.586;13.782;2022-11-20T09:57:20;8.40;84.40
45491;DHT22;31237;45.586;13.782;2022-11-20T09:59:51;8.40;84.30
45491;DHT22;31237;45.586;13.782;2022-11-20T10:10:28;8.60;83.50
45491;DHT22;31237;45.586;13.782;2022-11-20T10:13:12;8.70;83.40
45491;DHT22;31237;45.586;13.782;2022-11-20T10:26:30;9.00;83.20
45491;DHT22;31237;45.586;13.782;2022-11-20T10:29:13;9.00;82.10
45491;DHT22;31237;45.586;13.782;2022-11-20T10:31:47;9.00;81.70
45491;DHT22;31237;45.586;13.782;2022-11-20T10:34:48;9.00;82.10
45491;DHT22;31237;45.586;13.782;2022-11-20T10:37:33;9.10;80.50
45491;DHT22;31237;45.586;13.782;2022-11-20T10:42:53;9.00;81.00
45491;DHT22;31237;45.586;13.782;2022-11-20T10:47:51;9.10;81.00
45491;DHT22;31237;45.586;13.782;2022-11-20T10:50:21;9.10;80.30
45491;DHT22;31237;45.586;13.782;2022-11-20T10:55:50;9.20;81.10
45491;DHT22;31237;45.586;13.782;2022-11-20T10:58:47;9.20;81.40
45491;DHT22;31237;45.586;13.782;2022-11-20T11:01:18;9.30;80.70
45491;DHT22;31237;45.586;13.782;2022-11-20T11:03:44;9.30;80.70
45491;DHT22;31237;45.586;13.782;2022-11-20T11:06:40;9.30;81.00
45491;DHT22;31237;45.586;13.782;2022-11-20T11:09:16;9.30;80.70
45491;DHT22;31237;45.586;13.782;2022-11-20T11:11:42;9.30;80.70
45491;DHT22;31237;45.586;13.782;2022-11-20T11:14:13;9.40;80.70
45491;DHT22;31237;45.586;13.782;2022-11-20T11:16:55;9.40;80.10
45491;DHT22;31237;45.586;13.782;2022-11-20T11:19:22;9.40;80.10
45491;DHT22;31237;45.586;13.782;2022-11-20T11:21:50;9.40;80.30
45491;DHT22;31237;45.586;13.782;2022-11-20T11:24:26;9.40;80.50
45491;DHT22;31237;45.586;13.782;2022-11-20T11:27:03;9.40;80.40
45491;DHT22;31237;45.586;13.782;2022-11-20T11:29:31;9.40;80.60
45491;DHT22;31237;45.586;13.782;2022-11-20T11:32:08;9.40;80.90
45491;DHT22;31237;45.586;13.782;2022-11-20T11:34:34;9.50;81.10
45491;DHT22;31237;45.586;13.782;2022-11-20T11:37:01;9.50;80.80
45491;DHT22;31237;45.586;13.782;2022-11-20T11:39:29;9.50;79.80
45491;DHT22;31237;45.586;13.782;2022-11-20T11:41:56;9.50;80.10
45491;DHT22;31237;45.586;13.782;2022-11-20T11:44:32;9.40;80.10
45491;DHT22;31237;45.586;13.782;2022-11-20T11:47:48;9.40;80.40
45491;DHT22;31237;45.586;13.782;2022-11-20T11:50:21;9.40;80.60
45491;DHT22;31237;45.586;13.782;2022-11-20T11:52:53;9.40;80.80
45491;DHT22;31237;45.586;13.782;2022-11-20T11:55:46;9.40;81.10
45491;DHT22;31237;45.586;13.782;2022-11-20T12:00:50;9.50;81.40
45491;DHT22;31237;45.586;13.782;2022-11-20T12:03:40;9.50;81.60
45491;DHT22;31237;45.586;13.782;2022-11-20T12:06:17;9.60;80.90
45491;DHT22;31237;45.586;13.782;2022-11-20T12:09:02;9.70;80.90
45491;DHT22;31237;45.586;13.782;2022-11-20T12:11:39;9.70;80.80
45491;DHT22;31237;45.586;13.782;2022-11-20T12:14:35;9.80;80.50
45491;DHT22;31237;45.586;13.782;2022-11-20T12:17:03;9.90;80.40
45491;DHT22;31237;45.586;13.782;2022-11-20T12:19:31;10.00;79.90
45491;DHT22;31237;45.586;13.782;2022-11-20T12:27:23;10.00;79.20
45491;DHT22;31237;45.586;13.782;2022-11-20T12:30:02;10.00;79.10
45491;DHT22;31237;45.586;13.782;2022-11-20T12:33:00;10.00;79.20
45491;DHT22;31237;45.586;13.782;2022-11-20T12:44:52;10.00;79.00
45491;DHT22;31237;45.586;13.782;2022-11-20T12:47:47;10.00;79.00
45491;DHT22;31237;45.586;13.782;2022-11-20T12:52:56;10.00;79.40
45491;DHT22;31237;45.586;13.782;2022-11-20T13:07:13;10.00;79.50
45491;DHT22;31237;45.586;13.782;2022-11-20T13:09:49;10.10;79.20
45491;DHT22;31237;45.586;13.782;2022-11-20T13:12:40;10.10;78.70
45491;DHT22;31237;45.586;13.782;2022-11-20T13:18:10;10.00;78.10
45491;DHT22;31237;45.586;13.782;2022-11-20T13:20:45;10.00;78.50
45491;DHT22;31237;45.586;13.782;2022-11-20T13:23:10;10.00;78.50
45491;DHT22;31237;45.586;13.782;2022-11-20T13:25:38;9.90;78.70
45491;DHT22;31237;45.586;13.782;2022-11-20T13:28:27;9.90;79.00
45491;DHT22;31237;45.586;13.782;2022-11-20T13:30:55;9.90;79.10
45491;DHT22;31237;45.586;13.782;2022-11-20T13:33:44;9.90;78.90
45491;DHT22;31237;45.586;13.782;2022-11-20T13:36:24;9.80;78.50
45491;DHT22;31237;45.586;13.782;2022-11-20T13:38:54;9.80;78.70
45491;DHT22;31237;45.586;13.782;2022-11-20T13:41:53;9.70;78.90
45491;DHT22;31237;45.586;13.782;2022-11-20T13:44:38;9.70;79.20
45491;DHT22;31237;45.586;13.782;2022-11-20T13:47:04;9.60;79.40
45491;DHT22;31237;45.586;13.782;2022-11-20T13:49:44;9.50;79.70
45491;DHT22;31237;45.586;13.782;2022-11-20T13:52:39;9.50;79.90
45491;DHT22;31237;45.586;13.782;2022-11-20T14:00:20;9.30;80.20
45491;DHT22;31237;45.586;13.782;2022-11-20T14:03:08;9.30;79.90
45491;DHT22;31237;45.586;13.782;2022-11-20T14:05:40;9.20;80.00
45491;DHT22;31237;45.586;13.782;2022-11-20T14:08:13;9.10;80.20
45491;DHT22;31237;45.586;13.782;2022-11-20T14:10:39;9.10;80.30
45491;DHT22;31237;45.586;13.782;2022-11-20T14:13:31;9.10;80.20
45491;DHT22;31237;45.586;13.782;2022-11-20T14:15:57;9.00;80.00
45491;DHT22;31237;45.586;13.782;2022-11-20T14:18:26;9.00;80.10
45491;DHT22;31237;45.586;13.782;2022-11-20T14:20:52;8.90;80.30
45491;DHT22;31237;45.586;13.782;2022-11-20T14:23:29;8.90;80.30
45491;DHT22;31237;45.586;13.782;2022-11-20T14:25:55;8.80;80.30
45491;DHT22;31237;45.586;13.782;2022-11-20T14:28:29;8.80;80.40
45491;DHT22;31237;45.586;13.782;2022-11-20T14:30:56;8.80;80.40
45491;DHT22;31237;45.586;13.782;2022-11-20T14:33:25;8.80;80.60
45491;DHT22;31237;45.586;13.782;2022-11-20T14:35:56;8.70;80.40
45491;DHT22;31237;45.586;13.782;2022-11-20T14:38:27;8.70;80.60
45491;DHT22;31237;45.586;13.782;2022-11-20T14:41:05;8.70;80.70
45491;DHT22;31237;45.586;13.782;2022-11-20T14:43:31;8.60;81.40
45491;DHT22;31237;45.586;13.782;2022-11-20T14:46:09;8.60;81.10
45491;DHT22;31237;45.586;13.782;2022-11-20T14:51:10;8.50;81.50
45491;DHT22;31237;45.586;13.782;2022-11-20T14:53:36;8.50;81.70
45491;DHT22;31237;45.586;13.782;2022-11-20T14:56:02;8.40;81.90
45491;DHT22;31237;45.586;13.782;2022-11-20T14:58:31;8.40;82.00
45491;DHT22;31237;45.586;13.782;2022-11-20T15:01:01;8.30;82.20
45491;DHT22;31237;45.586;13.782;2022-11-20T15:03:45;8.30;82.20
45491;DHT22;31237;45.586;13.782;2022-11-20T15:06:12;8.30;82.30
45491;DHT22;31237;45.586;13.782;2022-11-20T15:08:38;8.30;82.40
45491;DHT22;31237;45.586;13.782;2022-11-20T15:11:27;8.30;82.30
45491;DHT22;31237;45.586;13.782;2022-11-20T15:13:53;8.20;82.30
45491;DHT22;31237;45.586;13.782;2022-11-20T15:16:21;8.20;82.40
45491;DHT22;31237;45.586;13.782;2022-11-20T15:18:47;8.20;82.50
45491;DHT22;31237;45.586;13.782;2022-11-20T15:21:18;8.10;82.50
45491;DHT22;31237;45.586;13.782;2022-11-20T15:23:44;8.10;82.60
45491;DHT22;31237;45.586;13.782;2022-11-20T15:26:12;8.10;82.70
45491;DHT22;31237;45.586;13.782;2022-11-20T15:28:44;8.10;82.70
45491;DHT22;31237;45.586;13.782;2022-11-20T15:31:15;8.00;82.60
45491;DHT22;31237;45.586;13.782;2022-11-20T15:33:41;8.00;82.60
45491;DHT22;31237;45.586;13.782;2022-11-20T15:36:08;8.00;82.70
45491;DHT22;31237;45.586;13.782;2022-11-20T15:38:34;7.90;82.80
45491;DHT22;31237;45.586;13.782;2022-11-20T15:41:00;7.90;83.10
45491;DHT22;31237;45.586;13.782;2022-11-20T15:43:26;7.80;83.10
45491;DHT22;31237;45.586;13.782;2022-11-20T15:45:55;7.80;83.30
45491;DHT22;31237;45.586;13.782;2022-11-20T15:48:27;7.70;83.40
45491;DHT22;31237;45.586;13.782;2022-11-20T15:50:59;7.70;83.50
45491;DHT22;31237;45.586;13.782;2022-11-20T15:53:26;7.70;83.60
45491;DHT22;31237;45.586;13.782;2022-11-20T15:55:52;7.60;83.70
45491;DHT22;31237;45.586;13.782;2022-11-20T15:58:18;7.50;83.90
45491;DHT22;31237;45.586;13.782;2022-11-20T16:00:44;7.50;84.10
45491;DHT22;31237;45.586;13.782;2022-11-20T16:03:14;7.50;84.30
45491;DHT22;31237;45.586;13.782;2022-11-20T16:05:40;7.40;84.40
45491;DHT22;31237;45.586;13.782;2022-11-20T16:08:06;7.40;84.60
45491;DHT22;31237;45.586;13.782;2022-11-20T16:10:32;7.40;84.70
45491;DHT22;31237;45.586;13.782;2022-11-20T16:12:58;7.30;84.80
45491;DHT22;31237;45.586;13.782;2022-11-20T16:15:44;7.30;84.80
45491;DHT22;31237;45.586;13.782;2022-11-20T16:18:17;7.30;84.90
45491;DHT22;31237;45.586;13.782;2022-11-20T16:20:44;7.30;85.00
45491;DHT22;31237;45.586;13.782;2022-11-20T16:23:10;7.20;85.00
45491;DHT22;31237;45.586;13.782;2022-11-20T16:25:36;7.20;85.10
45491;DHT22;31237;45.586;13.782;2022-11-20T16:28:02;7.20;85.10
45491;DHT22;31237;45.586;13.782;2022-11-20T16:30:28;7.20;85.20
45491;DHT22;31237;45.586;13.782;2022-11-20T16:32:54;7.20;85.20
45491;DHT22;31237;45.586;13.782;2022-11-20T16:35:20;7.20;85.20
45491;DHT22;31237;45.586;13.782;2022-11-20T16:37:45;7.20;85.20
45491;DHT22;31237;45.586;13.782;2022-11-20T16:40:11;7.10;85.10
45491;DHT22;31237;45.586;13.782;2022-11-20T16:42:37;7.10;85.30
45491;DHT22;31237;45.586;13.782;2022-11-20T16:45:04;7.10;85.40
45491;DHT22;31237;45.586;13.782;2022-11-20T16:47:36;7.00;85.40
45491;DHT22;31237;45.586;13.782;2022-11-20T16:50:03;7.00;85.40
45491;DHT22;31237;45.586;13.782;2022-11-20T16:52:30;7.00;85.50
45491;DHT22;31237;45.586;13.782;2022-11-20T16:54:56;7.00;85.60
45491;DHT22;31237;45.586;13.782;2022-11-20T16:57:22;6.90;85.50
45491;DHT22;31237;45.586;13.782;2022-11-20T16:59:48;6.90;85.60
45491;DHT22;31237;45.586;13.782;2022-11-20T17:02:14;6.90;85.60
45491;DHT22;31237;45.586;13.782;2022-11-20T17:04:40;6.80;85.60
45491;DHT22;31237;45.586;13.782;2022-11-20T17:07:06;6.80;85.70
45491;DHT22;31237;45.586;13.782;2022-11-20T17:09:33;6.70;85.90